Time;durP1;ratioP1;P1;durP2;ratioP2;P2;SDS_P1;SDS_P2;PMS_P1;PMS_P2;Temp;Humidity;BMP_temperature;BMP_pressure;BME280_temperature;BME280_humidity;BME280_pressure;Samples;Min_cycle;Max_cycle;Signal;HPM_P1;HPM_P2
2023/06/23 00:01:05;;;;;;;1.77;1.55;;;;;;;30.36;39.42;101688.19;5044594;27;97041;-79
2023/06/23 00:03:31;;;;;;;1.77;1.60;;;;;;;30.35;39.20;101686.50;5045552;27;98928;-79
2023/06/23 00:06:00;;;;;;;1.50;1.40;;;;;;;30.36;39.00;101684.56;5038378;27;97605;-78
2023/06/23 00:08:26;;;;;;;1.63;1.50;;;;;;;30.35;39.15;101678.19;5024953;27;97492;-79
2023/06/23 00:10:53;;;;;;;2.22;1.98;;;;;;;30.35;39.26;101683.72;5052428;27;98232;-79
2023/06/23 00:13:20;;;;;;;1.90;1.70;;;;;;;30.35;39.33;101677.31;5033809;27;96742;-78
2023/06/23 00:15:46;;;;;;;1.85;1.33;;;;;;;30.35;39.10;101682.88;5048384;27;97352;-79
2023/06/23 00:18:13;;;;;;;1.73;1.50;;;;;;;30.34;39.20;101686.72;5051802;27;96728;-79
2023/06/23 00:20:39;;;;;;;1.67;1.40;;;;;;;30.34;39.25;101698.66;5051399;27;96879;-79
2023/06/23 00:23:06;;;;;;;1.88;1.60;;;;;;;30.34;39.09;101700.56;5052505;27;97092;-79
2023/06/23 00:25:32;;;;;;;1.55;1.40;;;;;;;30.34;39.45;101695.88;5052135;27;97124;-79
2023/06/23 00:27:59;;;;;;;2.15;1.70;;;;;;;30.34;39.18;101708.88;5052813;27;96593;-79
2023/06/23 00:30:26;;;;;;;1.50;1.40;;;;;;;30.32;39.29;101709.09;5034033;27;97189;-79
2023/06/23 00:32:53;;;;;;;1.50;1.40;;;;;;;30.33;39.10;101713.56;5034292;27;99605;-79
2023/06/23 00:35:19;;;;;;;1.83;1.40;;;;;;;30.33;38.99;101718.25;5048712;27;99349;-79
2023/06/23 00:37:46;;;;;;;1.48;1.35;;;;;;;30.33;39.15;101721.03;5045404;27;96782;-79
2023/06/23 00:40:13;;;;;;;1.70;1.33;;;;;;;30.33;39.15;101726.56;5048560;27;97459;-79
2023/06/23 00:42:48;;;;;;;2.15;1.50;;;;;;;30.33;39.33;101729.34;5021239;27;100665;-78
2023/06/23 00:45:15;;;;;;;1.50;1.40;;;;;;;30.32;39.21;101736.81;5044209;27;100166;-79
2023/06/23 00:47:45;;;;;;;1.63;1.52;;;;;;;30.32;39.29;101741.50;5041686;27;96759;-79
2023/06/23 00:50:15;;;;;;;1.70;1.40;;;;;;;30.32;39.18;101749.81;5037312;27;96921;-79
2023/06/23 00:52:50;;;;;;;1.52;1.40;;;;;;;30.32;39.04;101747.03;5032440;27;100426;-79
2023/06/23 00:55:26;;;;;;;1.98;1.52;;;;;;;30.31;38.72;101742.56;5049528;27;101146;-78
2023/06/23 00:57:55;;;;;;;1.50;1.30;;;;;;;30.30;39.35;101732.56;5039600;27;96780;-79
2023/06/23 01:00:24;;;;;;;1.60;1.50;;;;;;;30.29;39.04;101739.16;5043752;27;97002;-79
2023/06/23 01:02:58;;;;;;;1.35;1.25;;;;;;;30.30;39.33;101752.81;5055205;27;97719;-79
2023/06/23 01:05:37;;;;;;;2.05;1.30;;;;;;;30.30;39.11;101761.13;5053903;27;97680;-78
2023/06/23 01:08:40;;;;;;;1.48;1.35;;;;;;;30.29;39.24;101762.19;5046861;27;96869;-78
2023/06/23 01:11:23;;;;;;;1.70;1.58;;;;;;;30.28;39.24;101765.19;5055947;27;96628;-79
2023/06/23 01:14:06;;;;;;;1.83;1.50;;;;;;;30.27;39.39;101758.78;5041464;27;100266;-79
2023/06/23 01:16:40;;;;;;;1.80;1.50;;;;;;;30.27;39.19;101760.69;5047543;27;96867;-79
2023/06/23 01:19:20;;;;;;;1.83;1.40;;;;;;;30.26;39.06;101759.00;5050955;27;96654;-79
2023/06/23 01:22:31;;;;;;;1.80;1.38;;;;;;;30.27;39.25;101766.25;5048249;27;96740;-79
2023/06/23 01:25:31;;;;;;;1.27;1.17;;;;;;;30.25;39.29;101777.53;5039104;27;96820;-79
2023/06/23 01:28:19;;;;;;;1.38;1.20;;;;;;;30.22;39.22;101777.97;5044158;27;96680;-78
2023/06/23 01:30:54;;;;;;;1.52;1.38;;;;;;;30.22;39.07;101783.53;5053373;27;96740;-78
2023/06/23 01:33:26;;;;;;;1.55;1.45;;;;;;;30.22;39.28;101779.91;5036687;27;96903;-79
2023/06/23 01:36:07;;;;;;;1.60;1.50;;;;;;;30.22;38.99;101789.06;5037676;27;100009;-79
2023/06/23 01:38:38;;;;;;;1.92;1.45;;;;;;;30.23;39.19;101792.69;5051594;27;98727;-79
2023/06/23 01:41:11;;;;;;;1.30;1.20;;;;;;;30.24;39.21;101805.47;5053234;27;96949;-79
2023/06/23 01:43:38;;;;;;;1.60;1.23;;;;;;;30.23;39.16;101801.00;5055312;27;97125;-79
2023/06/23 01:46:11;;;;;;;1.40;1.30;;;;;;;30.24;39.23;101820.19;5052073;27;96742;-79
2023/06/23 01:48:41;;;;;;;1.30;1.20;;;;;;;30.24;39.21;101813.78;5052973;27;96708;-79
2023/06/23 01:51:10;;;;;;;1.45;1.30;;;;;;;30.22;39.31;101805.69;5055274;27;96796;-79
2023/06/23 01:53:38;;;;;;;1.88;1.33;;;;;;;30.23;39.14;101810.16;5041869;27;97378;-78
2023/06/23 01:56:07;;;;;;;1.40;1.27;;;;;;;30.24;39.04;101805.47;5052791;27;99370;-79
2023/06/23 01:58:37;;;;;;;1.30;1.10;;;;;;;30.24;39.01;101808.25;5036763;27;100146;-79
2023/06/23 02:01:05;;;;;;;1.52;1.30;;;;;;;30.22;38.98;101814.00;5052988;27;97315;-79
2023/06/23 02:03:33;;;;;;;1.25;1.15;;;;;;;30.22;39.21;101822.31;5051824;27;96735;-79
2023/06/23 02:06:01;;;;;;;1.30;1.10;;;;;;;30.22;38.99;101821.47;5050877;27;98683;-80
2023/06/23 02:08:30;;;;;;;1.70;1.20;;;;;;;30.22;39.04;101827.84;5035112;27;99390;-79
2023/06/23 02:10:58;;;;;;;1.50;1.40;;;;;;;30.22;39.10;101827.00;5053738;27;96824;-79
2023/06/23 02:13:27;;;;;;;1.30;1.20;;;;;;;30.20;38.83;101830.00;5052618;27;96884;-79
2023/06/23 02:16:01;;;;;;;1.30;1.20;;;;;;;30.21;39.15;101836.38;5047851;27;99098;-79
2023/06/23 02:18:28;;;;;;;1.25;1.15;;;;;;;30.20;39.14;101835.53;5053265;27;99249;-79
2023/06/23 02:20:57;;;;;;;1.27;1.13;;;;;;;30.21;38.99;101828.94;5054217;27;96877;-79
2023/06/23 02:23:25;;;;;;;1.73;1.40;;;;;;;30.20;38.98;101832.75;5053143;27;97093;-79
2023/06/23 02:25:52;;;;;;;2.42;1.45;;;;;;;30.20;38.86;101837.44;5051890;27;98777;-79
2023/06/23 02:28:20;;;;;;;1.55;1.10;;;;;;;30.19;39.06;101833.81;5052634;27;99575;-79
2023/06/23 02:30:47;;;;;;;1.80;1.40;;;;;;;30.21;39.14;101841.94;5052654;27;97133;-79
2023/06/23 02:33:13;;;;;;;1.67;1.30;;;;;;;30.19;38.99;101839.38;5053415;27;96829;-79
2023/06/23 02:35:41;;;;;;;1.48;1.38;;;;;;;30.19;39.22;101847.69;5051079;27;99458;-78
2023/06/23 02:38:12;;;;;;;1.83;1.23;;;;;;;30.19;38.84;101849.59;5049827;27;99074;-79
2023/06/23 02:40:42;;;;;;;1.35;1.20;;;;;;;30.18;39.07;101845.97;5052384;27;96771;-79
2023/06/23 02:43:29;;;;;;;1.30;1.20;;;;;;;30.19;38.93;101849.59;5051503;27;97303;-79
2023/06/23 02:46:01;;;;;;;1.55;1.33;;;;;;;30.18;39.10;101850.66;5042005;27;97528;-79
2023/06/23 02:48:36;;;;;;;1.52;1.30;;;;;;;30.18;39.04;101853.44;5052609;27;99615;-79
2023/06/23 02:51:05;;;;;;;1.50;1.30;;;;;;;30.16;39.05;101856.41;5053601;27;96672;-79
2023/06/23 02:53:37;;;;;;;1.55;1.45;;;;;;;30.18;38.90;101867.28;5052799;27;96880;-79
2023/06/23 02:56:19;;;;;;;1.30;1.20;;;;;;;30.17;38.78;101866.44;5051379;27;97897;-78
2023/06/23 02:58:48;;;;;;;1.30;1.20;;;;;;;30.15;38.87;101871.34;5052963;27;97329;-79
2023/06/23 03:01:17;;;;;;;1.45;1.30;;;;;;;30.15;39.04;101871.34;5047249;27;96990;-79
2023/06/23 03:03:44;;;;;;;1.05;0.95;;;;;;;30.15;38.85;101881.56;5049014;27;96863;-79
2023/06/23 03:06:22;;;;;;;1.17;1.08;;;;;;;30.16;38.83;101883.28;5035254;27;97097;-79
2023/06/23 03:08:50;;;;;;;1.10;1.00;;;;;;;30.15;38.88;101887.13;5035018;27;97925;-79
2023/06/23 03:11:20;;;;;;;1.30;1.20;;;;;;;30.14;39.22;101897.34;5040818;27;96880;-78
2023/06/23 03:13:48;;;;;;;1.30;1.20;;;;;;;30.14;39.01;101902.03;5031170;28;96812;-79
2023/06/23 03:16:25;;;;;;;1.40;1.17;;;;;;;30.15;38.78;101907.38;5028122;27;100696;-79
2023/06/23 03:19:06;;;;;;;1.65;1.15;;;;;;;30.14;38.80;101905.66;5050720;27;99578;-78
2023/06/23 03:21:37;;;;;;;1.20;1.10;;;;;;;30.13;38.85;101903.09;5052659;27;97014;-79
2023/06/23 03:24:08;;;;;;;1.30;1.20;;;;;;;30.13;39.02;101908.66;5052511;27;96655;-79
2023/06/23 03:26:40;;;;;;;1.48;1.10;;;;;;;30.12;38.68;101916.09;5048726;27;98944;-80
2023/06/23 03:29:10;;;;;;;1.40;1.27;;;;;;;30.13;38.78;101905.88;5052852;27;97156;-79
2023/06/23 03:31:42;;;;;;;1.10;1.00;;;;;;;30.13;39.05;101923.34;5052269;27;97224;-78
2023/06/23 03:34:11;;;;;;;1.13;1.02;;;;;;;30.12;38.74;101916.09;5023593;27;97328;-79
2023/06/23 03:36:41;;;;;;;1.25;1.05;;;;;;;30.13;38.77;101917.81;5051896;27;100613;-78
2023/06/23 03:39:15;;;;;;;1.45;1.20;;;;;;;30.12;38.91;101913.34;5050124;27;97398;-79
2023/06/23 03:41:42;;;;;;;1.10;1.00;;;;;;;30.11;38.95;101925.47;5051236;27;96767;-79
2023/06/23 03:44:20;;;;;;;1.30;1.20;;;;;;;30.11;38.72;101925.47;5052099;27;96810;-78
2023/06/23 03:46:52;;;;;;;1.33;1.20;;;;;;;30.12;38.74;101934.63;5049510;27;97647;-79
2023/06/23 03:49:26;;;;;;;1.67;1.10;;;;;;;30.11;38.90;101947.66;5050214;27;96865;-78
2023/06/23 03:51:55;;;;;;;1.30;1.20;;;;;;;30.10;38.99;101936.78;5052644;27;96795;-79
2023/06/23 03:54:24;;;;;;;1.15;1.05;;;;;;;30.11;38.45;101941.25;5049454;27;97132;-79
2023/06/23 03:56:53;;;;;;;1.52;1.15;;;;;;;30.10;38.91;101940.41;5051170;27;97490;-79
2023/06/23 03:59:23;;;;;;;1.50;1.30;;;;;;;30.11;38.89;101935.72;5052307;27;97771;-79
2023/06/23 04:01:51;;;;;;;1.27;1.00;;;;;;;30.10;38.91;101937.63;5052585;27;96763;-79
2023/06/23 04:04:21;;;;;;;1.30;1.20;;;;;;;30.09;38.68;101944.22;5050893;27;96680;-79
2023/06/23 04:06:50;;;;;;;1.40;1.20;;;;;;;30.10;38.67;101945.09;5033811;27;100545;-78
2023/06/23 04:09:20;;;;;;;1.65;0.98;;;;;;;30.10;38.59;101943.16;5052369;27;96595;-79
2023/06/23 04:11:50;;;;;;;1.30;1.20;;;;;;;30.10;38.57;101947.84;5052605;27;96668;-79
2023/06/23 04:14:19;;;;;;;1.42;1.20;;;;;;;30.09;38.60;101943.38;5053151;27;96583;-79
2023/06/23 04:16:50;;;;;;;1.38;1.20;;;;;;;30.09;38.68;101944.22;5051765;27;97906;-79
2023/06/23 04:19:17;;;;;;;2.33;1.38;;;;;;;30.09;38.71;101940.59;5051298;27;97641;-79
2023/06/23 04:21:45;;;;;;;1.00;0.90;;;;;;;30.08;38.79;101948.06;5050824;27;96684;-79
2023/06/23 04:24:14;;;;;;;1.08;0.98;;;;;;;30.08;38.74;101953.59;5038826;27;97588;-79
2023/06/23 04:26:43;;;;;;;1.10;1.00;;;;;;;30.08;38.93;101956.38;5050984;27;96779;-79
2023/06/23 04:29:11;;;;;;;1.45;1.17;;;;;;;30.08;38.81;101959.16;5051379;27;96691;-79
2023/06/23 04:31:39;;;;;;;1.23;1.13;;;;;;;30.08;38.64;101961.91;5040703;27;96664;-78
2023/06/23 04:34:06;;;;;;;1.10;1.00;;;;;;;30.08;38.65;101980.47;5054907;27;97245;-79
2023/06/23 04:36:48;;;;;;;1.33;1.10;;;;;;;30.09;38.58;101984.94;5054750;27;97108;-79
2023/06/23 04:39:27;;;;;;;1.13;1.02;;;;;;;30.08;38.80;101997.94;5056453;27;97589;-79
2023/06/23 04:42:05;;;;;;;1.67;1.08;;;;;;;30.08;38.59;101988.78;5043279;27;97049;-79
2023/06/23 04:44:39;;;;;;;1.38;1.13;;;;;;;30.07;38.70;101996.22;5055646;27;96815;-78
2023/06/23 04:47:06;;;;;;;1.40;1.10;;;;;;;30.06;38.68;102001.97;5055685;27;96973;-79
2023/06/23 04:49:33;;;;;;;1.20;1.10;;;;;;;30.06;38.66;102005.59;5054412;27;97390;-78
2023/06/23 04:52:03;;;;;;;1.38;1.20;;;;;;;30.06;38.60;102005.59;5053172;27;98627;-79
2023/06/23 04:54:39;;;;;;;1.27;1.17;;;;;;;30.07;38.61;101995.38;5051792;27;96646;-79
2023/06/23 04:57:28;;;;;;;1.38;1.13;;;;;;;30.06;38.48;101997.28;5052956;27;97690;-79
2023/06/23 04:59:58;;;;;;;1.23;1.10;;;;;;;30.05;38.48;102006.66;5053317;27;97508;-79
2023/06/23 05:02:27;;;;;;;1.17;1.08;;;;;;;30.06;38.71;102007.53;5042169;27;96669;-79
2023/06/23 05:04:56;;;;;;;1.25;1.10;;;;;;;30.06;38.38;102011.16;5049572;27;96934;-79
2023/06/23 05:07:26;;;;;;;1.45;1.05;;;;;;;30.05;38.55;102014.97;5040682;27;96749;-79
2023/06/23 05:09:54;;;;;;;1.20;1.10;;;;;;;30.05;38.46;102014.97;5055459;27;97314;-79
2023/06/23 05:12:23;;;;;;;1.30;1.20;;;;;;;30.05;38.27;102020.50;5051311;27;96674;-79
2023/06/23 05:14:51;;;;;;;1.10;1.00;;;;;;;30.06;38.38;102016.69;5053909;27;97013;-79
2023/06/23 05:17:20;;;;;;;1.20;1.00;;;;;;;30.06;38.54;102024.13;5054006;27;97906;-79
2023/06/23 05:19:48;;;;;;;1.90;1.27;;;;;;;30.06;38.30;102027.75;5029199;27;98603;-79
2023/06/23 05:22:17;;;;;;;1.10;0.98;;;;;;;30.05;38.66;102026.06;5052233;27;96751;-79
2023/06/23 05:24:49;;;;;;;1.20;1.10;;;;;;;30.05;38.54;102028.81;5050206;27;97878;-79
2023/06/23 05:27:20;;;;;;;1.40;1.30;;;;;;;30.05;38.69;102037.13;5034934;27;100146;-79
2023/06/23 05:29:50;;;;;;;1.92;1.30;;;;;;;30.05;38.55;102034.38;5051187;27;97296;-79
2023/06/23 05:32:18;;;;;;;1.38;1.23;;;;;;;30.04;38.43;102041.81;5054931;27;96860;-79
2023/06/23 05:34:49;;;;;;;1.08;0.98;;;;;;;30.06;38.38;102049.06;5051742;27;97373;-79
2023/06/23 05:37:19;;;;;;;1.40;1.20;;;;;;;30.06;38.60;102049.06;5054142;27;96805;-79
2023/06/23 05:39:50;;;;;;;1.33;1.17;;;;;;;30.04;38.63;102047.38;5053887;27;100646;-79
2023/06/23 05:42:19;;;;;;;1.10;0.93;;;;;;;30.04;38.35;102046.50;5050693;27;96882;-79
2023/06/23 05:44:45;;;;;;;1.33;1.15;;;;;;;30.05;38.42;102048.22;5050486;27;96819;-80
2023/06/23 05:47:18;;;;;;;1.48;1.10;;;;;;;30.06;38.49;102049.06;5051893;27;96915;-79
2023/06/23 05:49:46;;;;;;;1.10;1.00;;;;;;;30.04;38.66;102060.38;5053585;27;98744;-79
2023/06/23 05:52:18;;;;;;;1.30;1.20;;;;;;;30.06;38.55;102054.63;5049140;27;98277;-79
2023/06/23 05:54:47;;;;;;;1.10;1.00;;;;;;;30.04;38.52;102060.38;5046413;27;96777;-79
2023/06/23 05:57:30;;;;;;;1.23;1.13;;;;;;;30.04;38.46;102066.75;5046964;27;97754;-79
2023/06/23 06:00:09;;;;;;;1.77;1.25;;;;;;;30.04;38.36;102065.91;5050598;27;96687;-79
2023/06/23 06:02:43;;;;;;;1.10;1.00;;;;;;;30.03;38.58;102066.97;5046641;27;96866;-79
2023/06/23 06:05:13;;;;;;;1.10;0.90;;;;;;;30.04;38.47;102071.44;5045426;27;96949;-79
2023/06/23 06:07:41;;;;;;;1.20;1.10;;;;;;;30.04;38.38;102074.22;5044580;27;96757;-79
2023/06/23 06:10:09;;;;;;;1.48;1.13;;;;;;;30.03;38.35;102078.91;5048647;27;96930;-79
2023/06/23 06:12:38;;;;;;;1.20;1.10;;;;;;;30.04;38.41;102079.75;5054265;27;97452;-79
2023/06/23 06:15:07;;;;;;;1.33;1.05;;;;;;;30.03;38.47;102078.91;5048404;27;97794;-79
2023/06/23 06:17:37;;;;;;;1.20;1.02;;;;;;;30.03;38.32;102094.66;5050131;27;96751;-79
2023/06/23 06:20:06;;;;;;;1.25;1.10;;;;;;;30.04;38.54;102090.84;5050882;27;96874;-79
2023/06/23 06:22:36;;;;;;;1.90;1.27;;;;;;;30.06;38.41;102098.94;5049877;27;96698;-79
2023/06/23 06:25:06;;;;;;;1.33;1.23;;;;;;;30.03;38.19;102098.28;5047676;27;97102;-78
2023/06/23 06:27:33;;;;;;;1.40;1.10;;;;;;;30.03;38.36;102108.53;5043385;27;96672;-80
2023/06/23 06:30:03;;;;;;;1.73;1.10;;;;;;;30.04;38.50;102110.22;5049399;27;97760;-78
2023/06/23 06:32:34;;;;;;;1.33;1.05;;;;;;;30.03;38.38;102106.59;5044176;27;97443;-79
2023/06/23 06:35:05;;;;;;;0.95;0.88;;;;;;;30.03;38.21;102114.06;5051118;27;96991;-79
2023/06/23 06:37:47;;;;;;;1.40;1.13;;;;;;;30.03;38.10;102114.91;5049282;27;96764;-79
2023/06/23 06:40:19;;;;;;;1.35;1.13;;;;;;;30.03;38.42;102119.59;5047196;27;97309;-79
2023/06/23 06:42:45;;;;;;;3.15;1.35;;;;;;;30.03;38.32;102116.84;5047866;27;96994;-79
2023/06/23 06:45:12;;;;;;;1.20;1.08;;;;;;;30.02;38.45;102113.22;5048366;27;97382;-79
2023/06/23 06:47:43;;;;;;;1.20;1.10;;;;;;;30.03;38.46;102126.00;5045527;27;99463;-79
2023/06/23 06:50:13;;;;;;;2.83;1.17;;;;;;;30.04;38.21;102129.63;5047351;27;97636;-80
2023/06/23 06:52:41;;;;;;;1.40;1.08;;;;;;;30.04;38.25;102129.63;5016439;28;96791;-79
2023/06/23 06:55:18;;;;;;;1.30;1.20;;;;;;;30.04;38.58;102121.31;5034096;27;96756;-79
2023/06/23 06:57:47;;;;;;;1.60;1.38;;;;;;;30.03;38.24;102127.91;5034637;27;97578;-79
2023/06/23 07:00:18;;;;;;;1.15;1.05;;;;;;;30.03;38.37;102128.78;5047926;27;96788;-79
2023/06/23 07:02:45;;;;;;;1.17;1.08;;;;;;;30.04;38.35;102129.63;5033452;27;97455;-79
2023/06/23 07:05:13;;;;;;;1.40;1.30;;;;;;;30.03;38.56;102136.22;5036313;27;97083;-79
2023/06/23 07:07:40;;;;;;;2.35;1.33;;;;;;;30.04;38.37;102140.72;5037408;27;96766;-79
2023/06/23 07:10:07;;;;;;;1.65;1.50;;;;;;;30.03;38.32;102139.84;5036828;27;97453;-78
2023/06/23 07:12:34;;;;;;;1.58;1.30;;;;;;;30.04;38.54;102146.25;5034070;27;97172;-79
2023/06/23 07:15:00;;;;;;;1.13;1.02;;;;;;;30.03;38.15;102142.63;5036563;27;96605;-79
2023/06/23 07:17:27;;;;;;;1.83;1.20;;;;;;;30.04;38.41;102152.66;5049339;27;96854;-79
2023/06/23 07:19:54;;;;;;;2.13;1.30;;;;;;;30.04;38.36;102160.09;5053091;27;98324;-79
2023/06/23 07:22:20;;;;;;;1.63;1.27;;;;;;;30.05;38.53;102159.03;5054609;27;96704;-79
2023/06/23 07:24:47;;;;;;;2.88;1.80;;;;;;;30.05;38.43;102161.81;5054114;27;96708;-79
2023/06/23 07:27:15;;;;;;;1.30;1.10;;;;;;;30.05;38.41;102161.81;5053814;27;97916;-79
2023/06/23 07:29:43;;;;;;;2.00;1.50;;;;;;;30.05;38.47;102153.50;5053056;27;97180;-79
2023/06/23 07:32:10;;;;;;;1.63;1.40;;;;;;;30.05;38.75;102159.03;5053731;27;96810;-79
2023/06/23 07:34:37;;;;;;;2.00;1.40;;;;;;;30.05;38.46;102159.03;5053778;27;97535;-79
2023/06/23 07:37:04;;;;;;;2.40;1.23;;;;;;;30.05;38.57;102164.59;5051520;27;99487;-79
2023/06/23 07:39:30;;;;;;;1.88;1.30;;;;;;;30.07;38.42;102164.38;5042481;27;97402;-79
2023/06/23 07:41:57;;;;;;;3.72;1.48;;;;;;;30.06;38.71;102162.66;5033154;27;97333;-79
2023/06/23 07:44:23;;;;;;;2.70;1.58;;;;;;;30.06;38.70;102166.28;5034064;27;96855;-79
2023/06/23 07:46:50;;;;;;;2.03;1.35;;;;;;;30.06;38.75;102169.06;5044370;27;97774;-79
2023/06/23 07:49:17;;;;;;;2.95;1.33;;;;;;;30.06;38.50;102163.53;5034759;27;97995;-79
2023/06/23 07:51:43;;;;;;;1.55;1.20;;;;;;;30.06;38.72;102163.53;5035149;27;96909;-79
2023/06/23 07:54:10;;;;;;;1.48;1.10;;;;;;;30.06;38.53;102166.28;5033244;27;96766;-79
2023/06/23 07:56:36;;;;;;;2.22;1.30;;;;;;;30.06;38.46;102166.28;5048991;27;99251;-78
2023/06/23 07:59:03;;;;;;;1.75;1.15;;;;;;;30.06;38.59;102160.75;5050944;27;96809;-79
2023/06/23 08:01:30;;;;;;;1.75;1.40;;;;;;;30.07;38.70;102161.59;5038747;27;96740;-79
2023/06/23 08:03:56;;;;;;;2.08;1.60;;;;;;;30.06;38.47;102169.06;5047479;27;97180;-79
2023/06/23 08:06:24;;;;;;;2.03;1.50;;;;;;;30.07;38.59;102165.22;5040489;27;97662;-79
2023/06/23 08:08:51;;;;;;;2.25;1.40;;;;;;;30.07;38.74;102168.00;5051002;27;97088;-79
2023/06/23 08:11:17;;;;;;;1.50;1.40;;;;;;;30.07;38.66;102176.31;5040756;27;97132;-79
2023/06/23 08:13:44;;;;;;;1.90;1.52;;;;;;;30.08;38.83;102174.41;5047554;27;97164;-79
2023/06/23 08:16:11;;;;;;;1.40;1.30;;;;;;;30.07;38.59;102179.09;5048229;27;97241;-79
2023/06/23 08:18:38;;;;;;;2.75;1.58;;;;;;;30.08;38.70;102180.78;5052751;27;99740;-79
2023/06/23 08:21:05;;;;;;;2.30;1.60;;;;;;;30.08;38.73;102179.94;5053561;27;97436;-78
2023/06/23 08:23:31;;;;;;;1.77;1.45;;;;;;;30.08;38.69;102179.94;5053259;27;96633;-78
2023/06/23 08:26:03;;;;;;;1.60;1.50;;;;;;;30.08;38.71;102182.72;5050393;27;97356;-78
2023/06/23 08:28:30;;;;;;;1.58;1.40;;;;;;;30.09;38.79;102188.03;5052886;27;96866;-78
2023/06/23 08:30:57;;;;;;;1.48;1.33;;;;;;;30.09;38.63;102184.41;5049679;27;96902;-79
2023/06/23 08:33:24;;;;;;;1.80;1.25;;;;;;;30.09;38.77;102184.41;5051738;27;96648;-78
2023/06/23 08:35:50;;;;;;;2.17;1.42;;;;;;;30.08;38.79;102191.03;5051302;27;96754;-78
2023/06/23 08:38:18;;;;;;;1.85;1.52;;;;;;;30.09;38.65;102196.34;5054390;27;97322;-78
2023/06/23 08:40:47;;;;;;;1.65;1.38;;;;;;;30.10;38.86;102191.66;5054289;27;96684;-78
2023/06/23 08:43:15;;;;;;;1.90;1.65;;;;;;;30.09;38.85;102190.81;5051933;27;96904;-78
2023/06/23 08:45:50;;;;;;;1.50;1.40;;;;;;;30.11;38.74;102197.00;5052150;27;96833;-78
2023/06/23 08:48:23;;;;;;;1.83;1.48;;;;;;;30.10;38.75;102197.22;5062575;27;97798;-78
2023/06/23 08:50:49;;;;;;;1.50;1.40;;;;;;;30.09;38.76;102196.34;5051021;27;96533;-78
2023/06/23 08:53:16;;;;;;;1.55;1.45;;;;;;;30.10;38.98;102199.97;5051619;27;97491;-78
2023/06/23 08:55:43;;;;;;;1.73;1.42;;;;;;;30.11;38.67;102205.31;5038599;27;98017;-78
2023/06/23 08:58:10;;;;;;;1.70;1.60;;;;;;;30.10;38.73;102209.16;5034943;27;97329;-78
2023/06/23 09:00:37;;;;;;;2.03;1.40;;;;;;;30.11;38.76;102210.84;5049098;27;96850;-78
2023/06/23 09:03:04;;;;;;;1.65;1.55;;;;;;;30.12;38.56;102206.16;5037585;27;97307;-78
2023/06/23 09:05:31;;;;;;;1.70;1.40;;;;;;;30.11;38.83;102213.63;5053275;27;96874;-77
2023/06/23 09:07:59;;;;;;;1.50;1.40;;;;;;;30.11;38.78;102219.16;5035082;27;97921;-77
2023/06/23 09:10:25;;;;;;;1.70;1.48;;;;;;;30.11;38.61;102219.16;5047461;27;96830;-78
2023/06/23 09:13:07;;;;;;;1.67;1.58;;;;;;;30.12;38.76;102225.56;5035326;27;96678;-78
2023/06/23 09:15:34;;;;;;;2.92;1.55;;;;;;;30.11;38.98;102229.41;5039909;27;99016;-79
2023/06/23 09:18:21;;;;;;;1.67;1.50;;;;;;;30.11;38.80;102238.56;5049547;27;96574;-78
2023/06/23 09:20:54;;;;;;;1.55;1.45;;;;;;;30.12;38.84;102243.06;5043774;27;96745;-78
2023/06/23 09:23:23;;;;;;;1.30;1.20;;;;;;;30.11;38.86;102238.56;5053707;27;96705;-78
2023/06/23 09:25:52;;;;;;;1.40;1.30;;;;;;;30.11;38.97;102244.09;5049693;27;96754;-78
2023/06/23 09:28:29;;;;;;;3.13;1.65;;;;;;;30.13;38.91;102238.38;5047097;27;98307;-78
2023/06/23 09:30:58;;;;;;;2.53;1.70;;;;;;;30.12;38.94;102245.81;5049292;27;96704;-78
2023/06/23 09:33:26;;;;;;;2.15;1.58;;;;;;;30.12;38.66;102247.72;5054092;27;97139;-78
2023/06/23 09:35:55;;;;;;;1.65;1.55;;;;;;;30.13;39.00;102244.75;5048655;27;98129;-78
2023/06/23 09:38:24;;;;;;;2.13;1.85;;;;;;;30.13;38.61;102242.00;5050635;27;96722;-77
2023/06/23 09:41:21;;;;;;;2.20;1.90;;;;;;;30.14;38.85;102249.25;5052045;27;97236;-78
2023/06/23 09:43:52;;;;;;;1.83;1.73;;;;;;;30.12;38.89;102245.81;5017991;27;97171;-77
2023/06/23 09:46:20;;;;;;;1.70;1.60;;;;;;;30.13;38.91;102249.44;5054007;27;97112;-78
2023/06/23 09:48:49;;;;;;;2.03;1.80;;;;;;;30.13;38.78;102244.75;5044218;27;98107;-78
2023/06/23 09:51:20;;;;;;;1.63;1.50;;;;;;;30.14;38.94;102253.94;5041374;27;96614;-78
2023/06/23 09:53:48;;;;;;;2.30;1.92;;;;;;;30.14;38.95;102251.16;5043936;27;96857;-78
2023/06/23 09:56:19;;;;;;;2.22;1.63;;;;;;;30.15;38.85;102261.19;5042982;27;100040;-78
2023/06/23 09:58:48;;;;;;;1.70;1.40;;;;;;;30.13;38.89;102255.84;5040158;27;97717;-78
2023/06/23 10:01:20;;;;;;;2.70;2.00;;;;;;;30.14;38.62;102251.16;5060957;27;96766;-78
2023/06/23 10:03:52;;;;;;;2.47;1.60;;;;;;;30.14;38.79;102252.00;5050424;27;97237;-78
2023/06/23 10:06:21;;;;;;;2.10;1.90;;;;;;;30.14;38.78;102253.94;5049408;27;97550;-78
2023/06/23 10:08:48;;;;;;;1.67;1.58;;;;;;;30.14;38.95;102249.25;5051174;27;96832;-78
2023/06/23 10:11:18;;;;;;;2.35;1.70;;;;;;;30.16;38.70;102249.03;5052353;27;96984;-77
2023/06/23 10:13:46;;;;;;;1.73;1.60;;;;;;;30.15;38.61;102248.19;5041311;27;97203;-79
2023/06/23 10:16:13;;;;;;;2.08;1.88;;;;;;;30.15;38.76;102250.94;5045965;27;97665;-79
2023/06/23 10:18:40;;;;;;;2.85;2.08;;;;;;;30.15;38.80;102241.78;5040323;27;99439;-78
2023/06/23 10:21:07;;;;;;;3.10;2.10;;;;;;;30.15;38.50;102247.31;5041114;27;96650;-78
2023/06/23 10:23:34;;;;;;;2.20;2.00;;;;;;;30.15;38.65;102248.19;5053498;27;97237;-79
2023/06/23 10:26:02;;;;;;;1.85;1.60;;;;;;;30.15;38.55;102248.19;5047817;27;96928;-78
2023/06/23 10:28:30;;;;;;;2.92;2.30;;;;;;;30.16;38.53;102244.34;5036479;27;96683;-78
2023/06/23 10:30:59;;;;;;;2.10;1.90;;;;;;;30.17;38.54;102245.22;5039567;27;96920;-78
2023/06/23 10:33:26;;;;;;;2.55;1.88;;;;;;;30.16;38.72;102254.59;5049639;27;97530;-79
2023/06/23 10:35:55;;;;;;;2.15;1.95;;;;;;;30.16;38.61;102249.88;5052614;27;100838;-78
2023/06/23 10:38:22;;;;;;;2.33;1.92;;;;;;;30.16;38.90;102244.34;5041991;27;96739;-79
2023/06/23 10:40:56;;;;;;;2.47;2.00;;;;;;;30.17;38.54;102245.22;5045174;27;96838;-79
2023/06/23 10:43:27;;;;;;;2.38;2.10;;;;;;;30.16;38.43;102249.03;5039661;27;96770;-78
2023/06/23 10:45:54;;;;;;;2.45;2.20;;;;;;;30.16;38.42;102247.13;5046217;27;99690;-79
2023/06/23 10:48:20;;;;;;;2.80;2.17;;;;;;;30.17;38.30;102245.22;5055120;27;97351;-79
2023/06/23 10:50:47;;;;;;;2.67;2.10;;;;;;;30.18;38.49;102246.91;5052795;27;96680;-79
2023/06/23 10:53:16;;;;;;;2.78;2.50;;;;;;;30.17;38.43;102251.59;5054073;27;96888;-79
2023/06/23 10:55:45;;;;;;;2.30;2.10;;;;;;;30.17;38.47;102250.75;5051087;27;100227;-78
2023/06/23 10:58:48;;;;;;;2.33;2.13;;;;;;;30.17;38.27;102254.38;5052342;27;99344;-78
2023/06/23 11:01:14;;;;;;;2.67;2.20;;;;;;;30.15;38.17;102259.25;5054733;27;96722;-80
2023/06/23 11:03:41;;;;;;;2.70;2.47;;;;;;;30.17;38.20;102257.16;5052111;27;97185;-79
2023/06/23 11:06:09;;;;;;;3.20;2.30;;;;;;;30.16;38.44;102255.44;5054473;27;97163;-79
2023/06/23 11:08:40;;;;;;;2.53;2.30;;;;;;;30.16;38.33;102258.22;5051050;27;100492;-78
2023/06/23 11:11:11;;;;;;;2.40;2.20;;;;;;;30.19;38.12;102259.72;5052319;27;96863;-79
2023/06/23 11:13:41;;;;;;;2.97;2.20;;;;;;;30.17;38.26;102259.91;5053257;27;97043;-79
2023/06/23 11:16:17;;;;;;;3.10;2.42;;;;;;;30.18;38.07;102258.84;5053010;27;97445;-78
2023/06/23 11:18:51;;;;;;;2.92;2.40;;;;;;;30.17;38.05;102251.59;5038044;27;96787;-78
2023/06/23 11:21:30;;;;;;;2.70;2.47;;;;;;;30.17;38.17;102254.38;5041403;27;96846;-78
2023/06/23 11:24:19;;;;;;;2.50;2.22;;;;;;;30.17;38.25;102261.84;5040720;27;96762;-78
2023/06/23 11:26:48;;;;;;;3.17;2.40;;;;;;;30.16;38.15;102276.75;5037420;27;96800;-77
2023/06/23 11:29:18;;;;;;;3.88;2.75;;;;;;;30.16;37.98;102276.75;5035409;27;101032;-78
2023/06/23 11:32:04;;;;;;;2.80;2.30;;;;;;;30.17;38.09;102281.22;5038255;27;97001;-78
2023/06/23 11:34:57;;;;;;;2.90;2.50;;;;;;;30.16;38.26;102277.59;5048075;27;97027;-79
2023/06/23 11:37:30;;;;;;;3.00;2.67;;;;;;;30.15;38.05;102283.34;5046697;27;97166;-79
2023/06/23 11:39:58;;;;;;;3.70;2.40;;;;;;;30.15;37.89;102289.75;5025984;27;98479;-78